Flight Track Log - Related Links

Times and Time Zones

All times are in EST time to prevent confusion due to time zone crossing. See the SWA718 flight status page for this flight to view local times or setup timezone preferences in your user account.

Time Position Orientation Groundspeed Altitude Reporting Facility
EST Latitude Longitude Course Direction KTS MPH feet Rate Location/Type
Sun 02:38:02 PM 39.8894 -84.2594 247° West 186 214 34,000  Level Indianapolis Center
Sun 02:39:04 PM 39.8825 -84.3272 262° West 208 239 4,400 -13,258 Descending Indianapolis Center
Sun 02:40:06 PM 39.8939 -84.4122 280° West 238 274 6,600 2,710 Climbing Indianapolis Center
Sun 02:41:08 PM 39.9083 -84.5025 282° West 254 292 10,000 2,419 Climbing Indianapolis Center
Sun 02:42:10 PM 39.9289 -84.6253 282° West 297 342 11,600 2,129 Climbing Indianapolis Center
Sun 02:43:12 PM 39.9589 -84.7358 290° West 321 369 14,400 2,565 Climbing Indianapolis Center
Sun 02:44:14 PM 39.9886 -84.8486 289° West 328 377 16,900 2,016 Climbing Indianapolis Center
Sun 02:45:17 PM 40.0217 -84.9769 289° West 339 390 18,600 1,824 Climbing Indianapolis Center
Sun 02:46:19 PM 40.0556 -85.0978 290° West 353 406 20,700 1,839 Climbing Indianapolis Center
Sun 02:47:21 PM 40.0872 -85.2214 289° West 361 415 22,400 1,548 Climbing Indianapolis Center
Sun 02:48:23 PM 40.1194 -85.3481 288° West 368 423 23,900 1,306 Climbing Indianapolis Center
Sun 02:49:25 PM 40.1547 -85.4767 290° West 377 434 25,100 532 Climbing Indianapolis Center
Sun 02:50:27 PM 40.1947 -85.6317 289° West 378 435 25,000 -48 Descending Indianapolis Center
Sun 02:51:29 PM 40.2283 -85.7628 289° West 382 440 25,000 726 Level Indianapolis Center
Sun 02:52:31 PM 40.2636 -85.8981 289° West 393 452 26,500 1,548 Climbing Indianapolis Center
Sun 02:53:33 PM 40.2967 -86.0294 288° West 387 445 28,200 1,571 Climbing Indianapolis Center
Sun 02:54:37 PM 40.3372 -86.1878 289° West 389 448 29,800 1,619 Climbing Chicago Center
Sun 02:55:39 PM 40.3706 -86.3203 288° West 387 445 31,600 1,742 Climbing Chicago Center
Sun 02:56:41 PM 40.4028 -86.4503 288° West 381 438 33,400 1,161 Climbing Chicago Center
Sun 02:57:43 PM 40.4339 -86.5767 288° West 372 428 34,000 290 Climbing Chicago Center
Sun 02:58:45 PM 40.4658 -86.7036 288° West 370 426 34,000  Level Chicago Center
Sun 02:59:49 PM 40.5039 -86.8586 288° West 373 429 34,000  Level Chicago Center
Sun 03:00:51 PM 40.5356 -86.9867 288° West 371 427 34,000  Level Chicago Center
Sun 03:01:53 PM 40.5642 -87.1167 286° West 366 421 34,000  Level Chicago Center
Sun 03:02:55 PM 40.5847 -87.2492 282° West 371 427 34,000  Level Chicago Center
Sun 03:03:57 PM 40.6064 -87.3817 282° West 371 427 34,000  Level Chicago Center
Sun 03:04:59 PM 40.6322 -87.5367 282° West 363 418 34,000  Level Chicago Center
Sun 03:06:01 PM 40.6525 -87.6658 282° West 361 415 34,000  Level Chicago Center
Sun 03:07:03 PM 40.6731 -87.7936 282° West 358 412 34,000  Level Chicago Center
Sun 03:08:05 PM 40.6928 -87.9203 282° West 355 409 34,000 48 Level Chicago Center
Sun 03:09:07 PM 40.7125 -88.0458 282° West 352 405 34,100  Climbing Chicago Center
Sun 03:10:10 PM 40.7322 -88.1703 282° West 347 399 34,000 -48 Descending Chicago Center
Sun 03:11:11 PM 40.7550 -88.3189 281° West 345 397 34,000  Level Chicago Center
Sun 03:12:13 PM 40.7739 -88.4414 282° West 342 394 34,000  Level Chicago Center
Sun 03:13:15 PM 40.7914 -88.5633 281° West 339 390 34,000  Level Chicago Center
Sun 03:14:17 PM 40.8108 -88.6853 282° West 339 390 34,000  Level Chicago Center
Sun 03:15:19 PM 40.8289 -88.8058 281° West 338 389 34,000  Level Chicago Center
Sun 03:16:21 PM 40.8486 -88.9431 281° West 339 390 34,000  Level Chicago Center
Sun 03:17:23 PM 40.8672 -89.0631 282° West 336 387 34,000  Level Chicago Center
Sun 03:18:25 PM 40.8839 -89.1842 280° West 335 386 34,000  Level Chicago Center
Sun 03:19:26 PM 40.9019 -89.3050 281° West 337 388 34,000  Level Chicago Center
Sun 03:20:28 PM 40.9186 -89.4261 280° West 337 388 34,000  Level Chicago Center
Sun 03:21:30 PM 40.9367 -89.5575 280° West 336 387 34,000  Level Chicago Center
Sun 03:22:32 PM 40.9556 -89.6789 282° West 337 388 34,000  Level Chicago Center
Sun 03:23:34 PM 40.9722 -89.8011 280° West 337 388 34,000  Level Chicago Center
Sun 03:24:36 PM 40.9917 -89.9469 280° West 337 388 34,000  Level Chicago Center
Sun 03:25:38 PM 41.0069 -90.0544 281° West 337 388 34,000  Level Chicago Center
Sun 03:26:40 PM 41.0233 -90.1772 280° West 339 390 34,000  Level Chicago Center
Sun 03:27:42 PM 41.0425 -90.3283 280° West 349 402 34,000  Level Chicago Center
Sun 03:28:44 PM 41.0594 -90.4531 280° West 346 398 34,000  Level Chicago Center
Sun 03:29:45 PM 41.0750 -90.5764 280° West 342 394 34,000  Level Chicago Center
Sun 03:30:47 PM 41.0911 -90.7017 280° West 344 396 34,000  Level Chicago Center
Sun 03:31:49 PM 41.1083 -90.8261 280° West 345 397 34,000  Level Chicago Center
Sun 03:32:51 PM 41.1242 -90.9525 279° West 346 398 34,000  Level Chicago Center
Sun 03:33:53 PM 41.1436 -91.1039 280° West 347 399 34,000  Level Chicago Center
Sun 03:34:55 PM 41.1606 -91.2300 280° West 348 400 34,000  Level Chicago Center
Sun 03:35:57 PM 41.1758 -91.3567 279° West 348 400 34,000  Level Chicago Center
Sun 03:36:59 PM 41.1911 -91.4847 279° West 350 403 34,000  Level Chicago Center
Sun 03:38:01 PM 41.2075 -91.6128 280° West 352 405 34,000  Level Chicago Center
Sun 03:39:03 PM 41.2233 -91.7536 279° West 353 406 34,000  Level Chicago Center
Sun 03:40:05 PM 41.2397 -91.8844 279° West 354 407 34,000  Level Chicago Center
Sun 03:41:07 PM 41.2561 -92.0136 280° West 355 409 34,000  Level Chicago Center
Sun 03:42:09 PM 41.2711 -92.1433 279° West 355 409 34,000  Level Chicago Center
Sun 03:43:11 PM 41.2856 -92.2722 279° West 355 409 34,000  Level Chicago Center
Sun 03:44:13 PM 41.3033 -92.4231 279° West 358 412 34,000  Level Chicago Center
Sun 03:45:15 PM 41.3183 -92.5519 279° West 356 410 34,000  Level Chicago Center
Sun 03:46:17 PM 41.3328 -92.6817 278° West 358 412 34,000  Level Chicago Center
Sun 03:47:19 PM 41.3469 -92.8117 278° West 360 414 34,000  Level Chicago Center
Sun 03:48:21 PM 41.3639 -92.9672 278° West 358 412 34,000  Level Chicago Center
Sun 03:49:23 PM 41.3783 -93.0969 278° West 358 412 34,000  Level Chicago Center
Sun 03:50:24 PM 41.3925 -93.2247 278° West 354 407 34,000  Level Chicago Center
Sun 03:51:26 PM 41.4067 -93.3561 278° West 358 412 34,000  Level Chicago Center
Sun 03:52:28 PM 41.4211 -93.4883 278° West 362 417 34,000  Level Chicago Center
Sun 03:53:30 PM 41.4375 -93.6464 278° West 362 417 34,000  Level Chicago Center
Sun 03:54:32 PM 41.4394 -93.7783 271° West 359 413 34,000  Level Chicago Center
Sun 03:55:34 PM 41.4383 -93.9108 269° West 359 413 34,000  Level Chicago Center
Sun 03:56:36 PM 41.4400 -94.0425 271° West 359 413 34,000  Level Chicago Center
Sun 03:57:38 PM 41.4389 -94.1750 269° West 360 414 34,000  Level Chicago Center
Sun 03:58:40 PM 41.4403 -94.3347 271° West 361 415 34,000  Level Chicago Center
Sun 03:59:42 PM 41.4403 -94.4683 270° West 363 418 34,000  Level Chicago Center
Sun 04:01:07 PM 41.4383 -94.6550 269° West 363 418 34,000  Level Minneapolis Center
Sun 04:02:09 PM 41.4389 -94.7914 270° West 366 421 34,000  Level Minneapolis Center
Sun 04:03:11 PM 41.4408 -94.9278 271° West 370 426 34,000  Level Minneapolis Center
Sun 04:04:13 PM 41.4400 -95.0628 270° West 366 421 34,000  Level Minneapolis Center
Sun 04:05:14 PM 41.4389 -95.1978 269° West 367 422 34,000  Level Minneapolis Center
Sun 04:06:16 PM 41.4375 -95.3625 269° West 371 427 34,000  Level Minneapolis Center
Sun 04:07:18 PM 41.4361 -95.4983 269° West 369 425 34,000  Level Minneapolis Center
Sun 04:08:20 PM 41.4344 -95.6425 269° West 369 425 34,000  Level Minneapolis Center
Sun 04:09:21 PM 41.4350 -95.7789 270° West 368 423 34,000  Level Minneapolis Center
Sun 04:10:23 PM 41.4336 -95.9167 269° West 370 426 34,000  Level Minneapolis Center
Sun 04:11:25 PM 41.4325 -96.0533 269° West 370 426 34,000  Level Minneapolis Center
Sun 04:12:27 PM 41.4289 -96.1908 268° West 371 427 34,000  Level Minneapolis Center
Sun 04:13:29 PM 41.4261 -96.3289 269° West 372 428 34,000  Level Minneapolis Center
Sun 04:14:30 PM 41.4236 -96.4719 269° West 370 426 34,000  Level Minneapolis Center
Sun 04:15:32 PM 41.4208 -96.6106 269° West 374 430 34,000  Level Minneapolis Center
Sun 04:16:34 PM 41.4178 -96.7497 268° West 377 434 34,000  Level Minneapolis Center
Sun 04:17:36 PM 41.4142 -96.9169 268° West 377 434 34,000  Level Minneapolis Center
Sun 04:18:38 PM 41.4117 -97.0553 269° West 374 430 34,000  Level Minneapolis Center
Sun 04:19:40 PM 41.4100 -97.1964 269° West 379 436 34,000  Level Minneapolis Center
Sun 04:20:42 PM 41.4053 -97.3369 267° West 380 437 34,000  Level Minneapolis Center
Sun 04:21:44 PM 41.4011 -97.4769 268° West 380 437 34,000  Level Minneapolis Center
Sun 04:22:46 PM 41.3978 -97.6189 268° West 381 438 34,000  Level Minneapolis Center
Sun 04:23:48 PM 41.3922 -97.7883 268° West 383 441 34,000  Level Minneapolis Center
Sun 04:24:50 PM 41.3886 -97.9294 268° West 382 440 34,000  Level Minneapolis Center
Sun 04:25:52 PM 41.3844 -98.0714 268° West 383 441 34,000  Level Minneapolis Center
Sun 04:26:53 PM 41.3803 -98.2097 268° West 386 444 34,000  Level Minneapolis Center
Sun 04:27:55 PM 41.3736 -98.3542 267° West 390 449 34,000  Level Minneapolis Center
Sun 04:28:57 PM 41.3419 -98.4956 253° West 389 448 34,000  Level Minneapolis Center
Sun 04:29:59 PM 41.3075 -98.6297 251° West 386 444 34,000  Level Minneapolis Center
Sun 04:31:01 PM 41.2683 -98.7956 253° West 390 449 34,000  Level Minneapolis Center
Sun 04:32:03 PM 41.2331 -98.9336 251° West 394 453 34,000  Level Minneapolis Center
Sun 04:33:05 PM 41.1986 -99.0717 252° West 394 453 34,000  Level Minneapolis Center
Sun 04:34:07 PM 41.1606 -99.2233 252° West 394 453 34,000  Level Minneapolis Center
Sun 04:35:09 PM 41.1253 -99.3631 252° West 399 459 34,000  Level Minneapolis Center
Sun 04:36:11 PM 41.0903 -99.5033 252° West 400 460 34,000  Level Minneapolis Center
Sun 04:37:20 PM 41.0464 -99.6719 251° West 403 464 34,000  Level Denver Center
Sun 04:38:22 PM 41.0092 -99.8125 251° West 404 465 34,000  Level Denver Center
Sun 04:39:24 PM 40.9692 -99.9658 251° West 405 466 34,000  Level Denver Center
Sun 04:40:26 PM 40.9342 -100.1019 251° West 407 468 34,000  Level Denver Center
Sun 04:41:28 PM 40.8981 -100.2386 251° West 410 472 34,000  Level Denver Center
Sun 04:42:30 PM 40.8556 -100.3983 251° West 411 473 34,000  Level Denver Center
Sun 04:43:32 PM 40.8189 -100.5375 251° West 417 480 34,000  Level Denver Center
Sun 04:44:33 PM 40.7764 -100.7008 251° West 414 476 34,000  Level Denver Center
Sun 04:45:35 PM 40.7539 -100.8519 259° West 417 480 34,000  Level Denver Center
Sun 04:46:37 PM 40.7308 -100.9964 258° West 418 481 34,000  Level Denver Center
Sun 04:47:39 PM 40.7025 -101.1644 258° West 421 484 34,000  Level Denver Center
Sun 04:48:41 PM 40.6769 -101.3086 257° West 421 484 34,000  Level Denver Center
Sun 04:49:43 PM 40.6478 -101.4781 257° West 426 490 34,000  Level Denver Center
Sun 04:50:45 PM 40.6219 -101.6242 257° West 428 493 34,000  Level Denver Center
Sun 04:51:47 PM 40.5911 -101.7944 257° West 429 494 34,000  Level Denver Center
Sun 04:52:49 PM 40.5644 -101.9408 257° West 430 495 34,000  Level Denver Center
Sun 04:53:50 PM 40.5361 -102.0886 256° West 434 499 34,000  Level Denver Center
Sun 04:54:52 PM 40.5089 -102.2358 256° West 434 499 34,000  Level Denver Center
Sun 04:55:54 PM 40.4781 -102.4083 257° West 434 499 34,000  Level Denver Center
Sun 04:56:56 PM 40.4444 -102.5797 256° West 435 501 34,000  Level Denver Center
Sun 04:57:58 PM 40.4172 -102.7247 256° West 432 497 34,000 -309 Level Denver Center
Sun 04:59:12 PM 40.3833 -102.9086 256° West 432 497 33,300 -1,632 Descending Denver Center
Sun 05:00:14 PM 40.3544 -103.0617 256° West 432 497 30,300 -2,758 Descending Denver Center
Sun 05:01:16 PM 40.3200 -103.2386 256° West 421 484 27,600 -2,195 Descending Denver Center
Sun 05:02:17 PM 40.2975 -103.3550 256° West 416 479 25,800 -2,195 Descending Denver Center
Sun 05:03:19 PM 40.2625 -103.5336 256° West 422 486 23,100 -2,371 Descending Denver Center
Sun 05:04:21 PM 40.2350 -103.6742 256° West 404 465 20,900 -2,952 Descending Denver Center
Sun 05:05:23 PM 40.2064 -103.8256 256° West 405 466 17,000 -2,758 Descending Denver Center
Sun 05:06:25 PM 40.1553 -103.9508 242° Southwest 371 427 15,200 -1,645 Descending Denver Center
Sun 05:07:27 PM 40.1039 -104.0625 239° Southwest 361 415 13,600 -1,122 Descending Denver Center
Sun 05:08:28 PM 40.0400 -104.1317 220° Southwest 321 369 12,900 -390 Descending Denver Center
Sun 05:09:30 PM 39.9681 -104.1347 182° South 250 288 12,800 -774 Descending Denver Center
Sun 05:10:32 PM 39.9019 -104.1336 179° South 238 274 11,300 -1,258 Descending Denver Center
Sun 05:11:34 PM 39.8444 -104.1344 181° South 242 278 10,200 -976 Descending Denver Center
Sun 05:12:35 PM 39.8439 -104.2294 270° West 228 262 9,300 -1,073 Descending Denver Center
Sun 05:13:37 PM 39.8603 -104.3094 285° West 230 265 8,000 -919 Descending Denver Center
Sun 05:14:39 PM 39.8750 -104.3958 283° West 227 261 7,400 -638 Descending Denver Center
Sun 05:15:11 PM 39.8833 -104.4333 286° West 230 265 7,000 -261 Descending Denver TRACON
Sun 05:16:11 PM 39.8833 -104.5167 270° West 197 227 7,000 -526 Level Denver TRACON
Sun 05:17:05 PM 39.8833 -104.5667 270° West 168 193 6,000 -611 Descending Denver TRACON
Sun 05:18:58 PM 39.8767 -104.6414 263° West 127 146 5,300 -372 Descending Denver Center
Sun 05:20:00 PM 39.8617 -104.6732 180° South  Level Estimated

Login

Don't have an account? Register now (free) for customized features, flight alerts, and more!